createdAt,value
2023-01-17T02:12:03.150Z,2.30
2023-01-17T02:14:29.760Z,2.40
2023-01-17T02:17:20.602Z,2.46
2023-01-17T02:20:25.013Z,2.54
2023-01-17T02:23:28.768Z,2.56
2023-01-17T02:26:10.528Z,2.56
2023-01-17T02:28:56.093Z,2.57
2023-01-17T02:31:31.957Z,2.61
2023-01-17T02:34:34.023Z,2.67
2023-01-17T02:37:23.854Z,2.66
2023-01-17T02:40:00.001Z,2.67
2023-01-17T02:42:35.188Z,2.68
2023-01-17T02:45:03.027Z,2.66
2023-01-17T02:47:31.962Z,2.66
2023-01-17T02:50:07.426Z,2.66
2023-01-17T02:52:55.055Z,2.66
2023-01-17T02:55:49.065Z,2.70
2023-01-17T02:58:46.409Z,2.74
2023-01-17T03:01:22.220Z,2.70
2023-01-17T03:04:03.886Z,2.66
2023-01-17T03:07:11.846Z,2.69
2023-01-17T03:09:40.693Z,2.69
2023-01-17T03:12:09.829Z,2.72
2023-01-17T03:14:36.486Z,2.76
2023-01-17T03:17:03.160Z,2.77
2023-01-17T03:19:29.895Z,2.79
2023-01-17T03:21:56.488Z,2.80
2023-01-17T03:24:23.320Z,2.82
2023-01-17T03:26:49.842Z,2.83
2023-01-17T03:29:16.644Z,2.86
2023-01-17T03:31:43.189Z,2.86
2023-01-17T03:34:09.786Z,2.90
2023-01-17T03:36:36.327Z,2.85
2023-01-17T03:39:03.172Z,2.92
2023-01-17T03:41:29.741Z,2.93
2023-01-17T03:43:56.318Z,2.95
2023-01-17T03:46:25.383Z,2.94
2023-01-17T03:48:52.426Z,2.91
2023-01-17T03:51:19.175Z,2.93
2023-01-17T03:53:49.985Z,2.92
2023-01-17T03:56:16.651Z,2.94
2023-01-17T03:58:43.294Z,2.97
2023-01-17T04:01:10.349Z,2.96
2023-01-17T04:03:36.993Z,2.99
2023-01-17T04:06:03.829Z,3.01
2023-01-17T04:08:30.603Z,2.97
2023-01-17T04:10:57.171Z,2.97
2023-01-17T04:13:23.780Z,2.94
2023-01-17T04:15:51.200Z,2.95
2023-01-17T04:18:19.476Z,2.98
2023-01-17T04:20:46.205Z,2.94
2023-01-17T04:23:12.855Z,2.97
2023-01-17T04:25:39.739Z,2.96
2023-01-17T04:28:06.385Z,2.97
2023-01-17T04:30:33.672Z,2.99
2023-01-17T04:33:00.220Z,3.02
2023-01-17T04:35:26.867Z,2.99
2023-01-17T04:37:53.371Z,2.98
2023-01-17T04:40:20.041Z,3.02
2023-01-17T04:42:47.294Z,3.04
2023-01-17T04:45:14.967Z,3.05
2023-01-17T04:47:41.572Z,3.09
2023-01-17T04:50:09.551Z,3.10
2023-01-17T04:52:36.111Z,3.06
2023-01-17T04:55:02.650Z,3.08
2023-01-17T04:57:29.212Z,3.10
2023-01-17T04:59:55.783Z,3.11
2023-01-17T05:02:22.584Z,3.10
2023-01-17T05:04:49.177Z,3.10
2023-01-17T05:07:15.773Z,3.11
2023-01-17T05:09:43.817Z,3.11
2023-01-17T05:12:10.511Z,3.09
2023-01-17T05:14:37.077Z,3.11
2023-01-17T05:17:03.607Z,3.10
2023-01-17T05:19:30.309Z,3.14
2023-01-17T05:22:03.706Z,3.17
2023-01-17T05:24:31.508Z,3.14
2023-01-17T05:27:03.212Z,3.16
2023-01-17T05:29:30.606Z,3.17
2023-01-17T05:31:57.378Z,3.15
2023-01-17T05:34:24.101Z,3.22
2023-01-17T05:36:50.683Z,3.21
2023-01-17T05:39:17.263Z,3.25
2023-01-17T05:41:43.895Z,3.22
2023-01-17T05:44:10.616Z,3.23
2023-01-17T05:46:37.421Z,3.24
2023-01-17T05:49:04.112Z,3.25
2023-01-17T05:51:30.648Z,3.25
2023-01-17T05:53:57.204Z,3.30
2023-01-17T05:56:23.737Z,3.28
2023-01-17T05:58:50.259Z,3.27
2023-01-17T06:01:17.739Z,3.29
2023-01-17T08:38:05.164Z,3.57
2023-01-17T08:40:32.745Z,3.61
2023-01-17T08:43:01.214Z,3.65
2023-01-17T08:45:28.957Z,3.71
2023-01-17T08:47:58.137Z,3.75
2023-01-17T08:50:26.091Z,3.76
2023-01-17T08:53:00.928Z,3.79
2023-01-17T08:55:28.047Z,3.81
2023-01-17T08:57:55.953Z,3.87
2023-01-17T09:00:22.935Z,3.90
2023-01-17T09:02:52.115Z,3.89
2023-01-17T09:05:18.667Z,3.95
2023-01-17T09:07:45.586Z,3.87
2023-01-17T09:10:12.496Z,3.94
2023-01-17T09:12:40.303Z,3.99
2023-01-17T09:15:07.418Z,4.02
2023-01-17T09:17:33.952Z,4.03
2023-01-17T09:20:00.988Z,4.06
2023-01-17T09:22:27.581Z,4.05
2023-01-17T09:24:54.076Z,4.09
2023-01-17T09:27:20.955Z,4.06
2023-01-17T09:29:47.637Z,4.13
2023-01-17T09:32:17.215Z,4.12
2023-01-17T09:34:44.332Z,4.22
2023-01-17T09:37:10.975Z,4.25
2023-01-17T09:39:37.514Z,4.29
2023-01-17T09:42:16.032Z,4.36
2023-01-17T09:44:45.058Z,4.37
2023-01-17T09:47:19.985Z,4.45
2023-01-17T09:49:47.450Z,4.49
2023-01-17T09:52:17.923Z,4.52
2023-01-17T09:54:47.570Z,4.48
2023-01-17T09:57:58.763Z,4.57
2023-01-17T10:00:37.507Z,4.60
2023-01-17T10:03:25.137Z,4.57
2023-01-17T10:06:30.136Z,4.62
2023-01-17T10:09:22.657Z,4.70
2023-01-17T10:12:13.692Z,4.74
2023-01-17T10:14:58.158Z,4.79
2023-01-17T10:17:50.524Z,4.81
2023-01-17T10:20:17.062Z,4.76
2023-01-17T10:23:11.340Z,4.78
2023-01-17T10:25:43.701Z,4.76
2023-01-17T10:28:20.262Z,4.71
2023-01-17T10:30:58.491Z,4.72
2023-01-17T10:33:29.630Z,4.67
2023-01-17T10:36:03.839Z,4.63
2023-01-17T10:38:33.954Z,4.69
2023-01-17T10:41:15.677Z,4.71
2023-01-17T10:44:07.617Z,4.62
2023-01-17T10:46:55.582Z,4.65
2023-01-17T10:49:26.998Z,4.64
2023-01-17T10:52:21.367Z,4.61
2023-01-17T10:55:25.911Z,4.60
2023-01-17T10:57:53.649Z,4.62
2023-01-17T11:01:07.234Z,4.59
2023-01-17T11:03:34.729Z,4.51
2023-01-17T11:06:19.402Z,4.55
2023-01-17T11:08:50.789Z,4.55
2023-01-17T11:11:18.151Z,4.54
2023-01-17T11:13:47.749Z,4.51
2023-01-17T11:16:27.527Z,4.52
2023-01-17T11:19:19.430Z,4.48
2023-01-17T11:22:07.344Z,4.46
2023-01-17T11:24:41.789Z,4.42
2023-01-17T11:27:33.710Z,4.42
2023-01-17T11:30:05.471Z,4.42
2023-01-17T11:32:33.565Z,4.45
2023-01-17T11:35:08.397Z,4.46
2023-01-17T11:37:36.197Z,4.46
2023-01-17T11:40:09.805Z,4.47
2023-01-17T11:42:38.331Z,4.51
2023-01-17T11:45:32.250Z,4.47
2023-01-17T11:48:08.152Z,4.50
2023-01-17T11:50:36.103Z,4.49
2023-01-17T11:53:21.397Z,4.49
2023-01-17T11:55:55.934Z,4.55
2023-01-17T11:58:24.120Z,4.56
2023-01-17T12:01:02.217Z,4.58
2023-01-17T12:03:45.552Z,4.58
2023-01-17T12:22:41.221Z,4.28
2023-01-17T12:25:14.935Z,4.33
2023-01-17T12:28:06.956Z,4.37
2023-01-17T12:30:33.401Z,4.42
2023-01-17T12:33:09.140Z,4.46
2023-01-17T12:35:50.632Z,4.47
2023-01-17T12:38:32.504Z,4.46
2023-01-17T12:41:19.054Z,4.50
2023-01-17T12:43:45.896Z,4.49
2023-01-17T12:46:13.181Z,4.56
2023-01-17T12:48:39.812Z,4.55
2023-01-17T12:51:27.726Z,4.57
2023-01-17T12:54:15.688Z,4.60
2023-01-17T12:56:54.091Z,4.60
2023-01-17T12:59:37.759Z,4.59
2023-01-17T13:02:18.960Z,4.59
2023-01-17T13:05:06.620Z,4.59
2023-01-17T13:07:45.829Z,4.55
2023-01-17T13:10:32.105Z,4.52
2023-01-17T13:13:00.551Z,4.52
2023-01-17T13:15:37.500Z,4.49
2023-01-17T13:18:13.561Z,4.50
2023-01-17T13:21:04.772Z,4.48
2023-01-17T13:23:59.620Z,4.46
2023-01-17T13:26:41.435Z,4.50
2023-01-17T13:29:26.654Z,4.47
2023-01-17T13:32:36.183Z,4.44
2023-01-17T13:35:41.963Z,4.43
2023-01-17T13:38:54.811Z,4.40
2023-01-17T13:41:56.540Z,4.36
2023-01-17T13:44:27.998Z,4.37
2023-01-17T13:47:17.160Z,4.39
2023-01-17T13:49:47.676Z,4.37
2023-01-17T13:52:20.031Z,4.36
2023-01-17T13:54:47.672Z,4.37
2023-01-17T13:57:29.222Z,4.35
2023-01-17T13:59:57.540Z,4.34
2023-01-17T14:02:36.216Z,4.32
2023-01-17T14:05:21.216Z,4.36
2023-01-17T14:08:00.248Z,4.36
2023-01-17T14:10:32.514Z,4.33
2023-01-17T14:12:59.819Z,4.34
2023-01-17T14:27:19.348Z,4.49
2023-01-17T14:29:50.729Z,4.46
2023-01-17T14:32:30.229Z,4.48
2023-01-17T14:34:57.384Z,4.51
2023-01-17T14:37:32.947Z,4.53
2023-01-17T14:40:00.752Z,4.45
2023-01-17T14:42:30.546Z,4.52
2023-01-17T14:45:05.712Z,4.54
2023-01-17T14:47:36.094Z,4.54
2023-01-17T14:50:24.675Z,4.56
2023-01-17T14:53:12.830Z,4.56
2023-01-17T14:55:48.303Z,4.56
2023-01-17T14:58:23.529Z,4.56
2023-01-17T15:00:53.463Z,4.52
2023-01-17T15:03:20.236Z,4.57
2023-01-17T15:05:50.775Z,4.56
2023-01-17T15:08:20.871Z,4.49
2023-01-17T15:11:03.030Z,4.57
2023-01-17T15:13:44.426Z,4.53
2023-01-17T15:16:27.846Z,4.60
2023-01-17T15:18:55.664Z,4.62
2023-01-17T15:21:26.484Z,4.60
2023-01-17T15:23:54.201Z,4.62
2023-01-17T15:26:24.374Z,4.61
2023-01-17T15:28:53.440Z,4.56
2023-01-17T15:31:37.779Z,4.63
2023-01-17T15:34:07.909Z,4.67
2023-01-17T15:36:35.220Z,4.65
2023-01-17T15:39:06.199Z,4.69
2023-01-17T15:41:35.990Z,4.69
2023-01-17T15:44:03.324Z,4.70
2023-01-17T15:46:34.041Z,4.66
2023-01-17T15:49:17.657Z,4.75
2023-01-17T15:51:50.545Z,4.71
2023-01-17T15:54:29.233Z,4.75
2023-01-17T15:57:14.285Z,4.70
2023-01-17T15:59:48.916Z,4.79
2023-01-17T16:02:36.978Z,4.78
2023-01-17T16:05:24.085Z,4.81
2023-01-17T16:08:03.259Z,4.90
2023-01-17T16:10:38.004Z,4.79
2023-01-17T16:13:10.117Z,4.90
2023-01-17T16:15:38.168Z,4.89
2023-01-17T16:18:20.972Z,4.90
2023-01-17T16:20:59.205Z,4.92
2023-01-17T16:23:26.201Z,5.01
2023-01-17T16:25:53.973Z,5.04
2023-01-17T16:28:21.016Z,5.06
2023-01-17T16:30:48.950Z,5.06
2023-01-17T16:33:15.927Z,5.10
2023-01-17T16:35:43.023Z,5.04
2023-01-17T16:38:15.703Z,5.09
2023-01-17T16:40:44.543Z,5.10
2023-01-17T16:43:12.209Z,5.08
2023-01-17T16:45:52.058Z,5.05
2023-01-17T16:48:19.607Z,5.06
2023-01-17T16:50:50.625Z,5.05
2023-01-17T16:53:24.714Z,5.09
2023-01-17T16:55:57.087Z,5.07
2023-01-17T16:58:23.647Z,5.00
2023-01-17T17:00:50.360Z,4.95
2023-01-17T17:03:19.161Z,4.97
2023-01-17T17:05:54.068Z,4.97
2023-01-17T17:08:20.612Z,5.02
2023-01-17T17:10:47.152Z,5.02
2023-01-17T17:13:13.696Z,4.98
2023-01-17T17:15:46.488Z,4.98
2023-01-17T17:18:15.387Z,4.93
2023-01-17T17:20:42.944Z,4.89
2023-01-17T17:23:12.742Z,4.88
2023-01-17T17:25:40.061Z,4.78
2023-01-17T17:28:06.730Z,4.84
2023-01-17T17:30:34.510Z,4.84
2023-01-17T17:33:04.729Z,4.85
2023-01-17T17:35:34.274Z,4.87
2023-01-17T17:38:00.787Z,4.93
2023-01-17T17:40:27.367Z,4.95
2023-01-17T17:42:53.869Z,4.99
2023-01-17T17:45:20.403Z,4.99
2023-01-17T17:47:47.038Z,5.02
2023-01-17T17:50:13.577Z,5.02
2023-01-17T17:52:40.836Z,5.07
2023-01-17T17:55:07.767Z,5.06
2023-01-17T17:57:34.279Z,5.18
2023-01-17T18:00:01.111Z,5.15
2023-01-17T18:02:27.727Z,5.16
2023-01-17T18:04:54.256Z,5.14
2023-01-17T18:07:20.815Z,5.24
2023-01-17T18:09:47.433Z,5.17
2023-01-17T18:12:14.403Z,5.26
2023-01-17T18:14:43.970Z,5.28
2023-01-17T20:02:45.639Z,3.56
2023-01-17T20:05:12.498Z,3.59
2023-01-17T20:07:39.136Z,3.62
2023-01-17T20:10:09.435Z,3.65
2023-01-17T20:12:36.129Z,3.62
2023-01-17T20:15:02.797Z,3.66
2023-01-17T20:17:29.491Z,3.68
2023-01-17T20:19:56.027Z,3.66
2023-01-17T20:22:22.601Z,3.66
2023-01-17T20:24:49.178Z,3.63
2023-01-17T20:27:17.505Z,3.58
2023-01-17T20:29:44.150Z,3.55
2023-01-17T20:32:10.698Z,3.47
2023-01-17T20:34:37.244Z,3.40
2023-01-17T20:37:03.794Z,3.38
2023-01-17T20:39:30.361Z,3.34
2023-01-17T20:41:57.630Z,3.40
2023-01-17T20:44:24.205Z,3.40
2023-01-17T20:46:51.085Z,3.42
2023-01-17T20:49:19.554Z,3.44
2023-01-17T20:51:46.747Z,3.46
2023-01-17T20:54:15.915Z,3.49
2023-01-17T20:56:43.350Z,3.46
2023-01-17T20:59:28.069Z,3.58
2023-01-17T21:01:54.708Z,3.59
2023-01-17T21:04:25.815Z,3.64
2023-01-17T21:06:53.491Z,3.60
2023-01-17T21:09:21.379Z,3.55
2023-01-17T21:11:48.746Z,3.45
2023-01-17T21:14:15.414Z,3.40
2023-01-17T21:16:42.152Z,3.39
2023-01-17T21:19:12.088Z,3.32
2023-01-17T21:21:38.926Z,3.26
2023-01-17T21:24:05.601Z,3.19
2023-01-17T21:26:32.175Z,3.17
2023-01-17T21:29:00.392Z,3.11
2023-01-17T21:31:29.894Z,3.09
2023-01-17T21:34:02.550Z,3.13
2023-01-17T21:36:32.674Z,3.13
2023-01-17T21:39:04.235Z,3.12
2023-01-17T21:41:33.588Z,3.14
2023-01-17T21:44:02.683Z,3.14
2023-01-17T21:46:30.054Z,3.16
2023-01-17T21:48:57.625Z,3.15
2023-01-17T21:51:45.001Z,3.17
2023-01-17T21:54:11.591Z,3.14
2023-01-17T21:56:56.712Z,3.13
